< Cyclone 198113 1981 Season Cyclone 198203 >
Cyclone 198114 (PADDY)
General InformationTrack Information on Google MapsList of All Images || ResourceGoogle EarthGE AnimationAtom FeedGeoJSON
Detalied Best Track (Time Zone = UTC)
Year Month Day Hour Lat. Long. Pressure (hPa) Wind (kt) Class Image Chart
1981 5 24 03 -5.9 89.0 1004 0 0 Image --
1981 5 24 06 -6.4 89.0 1001 0 0 Image --
1981 5 24 12 -6.9 89.0 999 0 0 Image --
1981 5 24 18 -8.4 89.3 997 0 0 Image --
1981 5 25 00 -9.1 89.8 994 0 0 Image --
1981 5 25 06 -10.4 90.8 991 0 0 Image --
1981 5 25 12 -10.9 91.3 988 0 0 Image --
1981 5 25 18 -11.2 91.4 982 0 0 Image --
1981 5 26 00 -11.6 91.7 982 0 0 Image --
1981 5 26 06 -12.1 92.0 973 0 0 Image --
1981 5 26 12 -12.6 91.6 973 0 0 Image --
1981 5 26 18 -12.7 91.5 973 0 0 Image --
1981 5 27 00 -12.8 91.4 973 0 0 Image --
1981 5 27 06 -13.1 91.4 973 0 0 Image --
1981 5 27 12 -13.3 91.8 973 0 0 Image --
1981 5 27 18 -13.5 92.2 978 0 0 Image --
1981 5 28 00 -13.8 92.4 983 0 0 Image --
1981 5 28 06 -14.1 92.6 983 0 0 Image --
1981 5 28 12 -14.6 92.6 988 0 0 Image --
1981 5 28 18 -15.2 93.0 992 0 0 Image --
1981 5 29 00 -15.4 93.2 994 0 0 Image --
1981 5 29 06 -15.7 93.7 1000 0 0 Image --
1981 5 29 12 -15.9 94.3 1001 0 0 Image --
1981 5 29 18 -16.1 94.7 1002 0 0 Image --
1981 5 30 00 -16.5 95.4 1003 0 0 Image --
< Cyclone 198113 1981 Season Cyclone 198203 >

Help